Time;durP1;ratioP1;P1;durP2;ratioP2;P2;SDS_P1;SDS_P2;PMS_P1;PMS_P2;Temp;Humidity;BMP_temperature;BMP_pressure;BME280_temperature;BME280_humidity;BME280_pressure;Samples;Min_cycle;Max_cycle;Signal;HPM_P1;HPM_P2
2021/10/20 00:00:22;;;;;;;21.30;12.10;;;;;;;8.65;78.43;98833.21;114305;1203;22998;-86
2021/10/20 00:03:04;;;;;;;31.70;18.00;;;;;;;8.67;78.17;98834.28;115004;1201;137514;-86
2021/10/20 00:05:31;;;;;;;46.10;23.50;;;;;;;8.66;77.94;98834.17;113867;1197;23271;-86
2021/10/20 00:07:58;;;;;;;49.40;27.10;;;;;;;8.62;77.59;98822.95;113706;1202;138535;-86
2021/10/20 00:10:41;;;;;;;50.00;25.90;;;;;;;8.59;77.61;98822.73;114704;1202;22558;-86
2021/10/20 00:13:09;;;;;;;41.30;22.30;;;;;;;8.54;77.58;98824.66;114036;1202;24279;-86
2021/10/20 00:15:40;;;;;;;40.00;23.00;;;;;;;8.54;77.62;98815.14;113837;1197;138165;-86
2021/10/20 00:18:07;;;;;;;42.80;23.40;;;;;;;8.55;78.06;98810.57;113919;1202;22592;-86
2021/10/20 00:20:36;;;;;;;41.90;23.80;;;;;;;8.57;78.09;98808.34;113782;1203;138128;-86
2021/10/20 00:23:03;;;;;;;40.30;21.00;;;;;;;8.59;78.32;98810.30;114550;1202;23048;-86
2021/10/20 00:25:30;;;;;;;34.90;20.80;;;;;;;8.60;78.37;98808.27;114243;1197;22629;-86
2021/10/20 00:27:59;;;;;;;32.50;19.20;;;;;;;8.60;78.19;98806.32;114149;1202;138554;-85
2021/10/20 00:30:29;;;;;;;31.00;17.80;;;;;;;8.61;78.32;98804.23;114242;1202;22510;-86
2021/10/20 00:33:00;;;;;;;26.60;16.20;;;;;;;8.62;78.33;98800.74;115162;1202;137782;-85
2021/10/20 00:35:27;;;;;;;30.00;16.90;;;;;;;8.64;78.27;98803.27;113992;1196;22450;-85
2021/10/20 00:37:54;;;;;;;26.90;14.70;;;;;;;8.65;78.20;98800.80;114245;1202;137905;-86
2021/10/20 00:40:26;;;;;;;27.30;14.40;;;;;;;8.63;78.21;98795.17;114738;1203;22459;-85
2021/10/20 00:42:53;;;;;;;25.80;14.10;;;;;;;8.59;78.05;98798.80;113939;1203;23835;-86
2021/10/20 00:45:36;;;;;;;26.90;14.10;;;;;;;8.60;78.21;98799.05;113898;1196;137658;-85
2021/10/20 00:48:04;;;;;;;31.30;17.90;;;;;;;8.63;78.31;98798.43;114192;1202;23073;-86
2021/10/20 00:50:31;;;;;;;35.30;19.10;;;;;;;8.62;78.12;98794.90;114398;1197;137783;-86
2021/10/20 00:52:58;;;;;;;32.50;19.30;;;;;;;8.58;78.01;98797.02;115367;1187;22564;-85
2021/10/20 00:55:31;;;;;;;31.90;17.90;;;;;;;8.53;77.96;98793.05;113792;1200;22432;-85
2021/10/20 00:58:03;;;;;;;31.90;17.30;;;;;;;8.52;78.02;98785.46;114064;1201;137729;-85
2021/10/20 01:00:30;;;;;;;29.10;15.00;;;;;;;8.53;78.14;98784.73;114489;1202;25061;-85
2021/10/20 01:02:57;;;;;;;24.50;13.10;;;;;;;8.55;77.96;98776.70;115297;1202;138389;-85
2021/10/20 01:05:27;;;;;;;20.00;11.40;;;;;;;8.60;77.74;98767.98;114155;1195;25100;-85
2021/10/20 01:07:59;;;;;;;21.80;12.40;;;;;;;8.64;77.60;98765.89;113713;1202;137647;-85
2021/10/20 01:10:46;;;;;;;22.80;12.60;;;;;;;8.66;77.44;98757.05;114442;1201;24935;-85
2021/10/20 01:13:13;;;;;;;20.90;11.90;;;;;;;8.68;77.43;98752.48;115176;1202;22980;-85
2021/10/20 01:15:42;;;;;;;;;;;;;;;8.66;77.27;98744.28;115480;1195;137435;-85
2021/10/20 01:18:11;;;;;;;20.20;11.70;;;;;;;8.64;77.32;98737.07;114555;1202;22449;-85
2021/10/20 01:20:46;;;;;;;20.20;10.80;;;;;;;8.62;77.25;98738.63;113894;1202;137578;-85
2021/10/20 01:23:13;;;;;;;21.20;10.40;;;;;;;8.62;77.32;98745.02;115693;1201;22239;-85
2021/10/20 01:25:40;;;;;;;19.60;9.40;;;;;;;8.64;76.98;98746.77;114373;1202;22441;-85
2021/10/20 01:28:07;;;;;;;20.30;9.90;;;;;;;8.66;77.22;98749.33;115342;1202;137754;-85
2021/10/20 01:30:34;;;;;;;15.90;9.50;;;;;;;8.68;77.51;98753.52;113744;1197;22425;-85
2021/10/20 01:33:04;;;;;;;19.40;10.50;;;;;;;8.69;77.36;98755.65;113639;1203;137139;-85
2021/10/20 01:35:32;;;;;;;16.90;9.70;;;;;;;8.71;77.36;98755.58;113774;1196;22471;-85
2021/10/20 01:38:03;;;;;;;15.00;8.80;;;;;;;8.71;77.48;98750.85;114626;1202;137539;-85
2021/10/20 01:40:44;;;;;;;16.90;8.80;;;;;;;8.74;77.22;98746.54;114203;1202;25257;-85
2021/10/20 01:43:11;;;;;;;14.40;8.10;;;;;;;8.75;77.04;98739.41;113981;1202;22451;-85
2021/10/20 01:45:38;;;;;;;13.60;7.70;;;;;;;8.78;76.88;98736.38;115254;1196;137673;-85
2021/10/20 01:48:19;;;;;;;15.20;7.40;;;;;;;8.79;76.63;98733.04;113676;1203;22618;-85
2021/10/20 01:50:46;;;;;;;12.70;6.60;;;;;;;8.81;76.77;98731.58;113743;1203;137247;-85
2021/10/20 01:53:13;;;;;;;11.20;6.80;;;;;;;8.81;76.82;98733.07;115492;1203;22254;-85
2021/10/20 01:55:40;;;;;;;10.80;6.90;;;;;;;8.83;76.70;98727.13;113859;1202;24053;-85
2021/10/20 01:58:11;;;;;;;10.10;6.70;;;;;;;8.85;76.69;98729.39;114249;1200;138016;-85
2021/10/20 02:00:45;;;;;;;11.00;6.60;;;;;;;8.87;76.59;98729.36;114273;1202;22425;-85
2021/10/20 02:03:29;;;;;;;12.70;7.00;;;;;;;8.90;76.44;98722.20;113760;1202;137564;-85
2021/10/20 02:06:00;;;;;;;17.50;7.50;;;;;;;8.94;76.50;98720.55;113862;1196;22586;-85
2021/10/20 02:08:27;;;;;;;14.60;7.20;;;;;;;8.98;76.52;98714.95;113603;1202;137762;-85
2021/10/20 02:10:56;;;;;;;14.20;7.20;;;;;;;9.00;76.59;98714.42;115405;1194;22627;-85
2021/10/20 02:13:23;;;;;;;14.40;7.60;;;;;;;9.00;76.61;98710.20;113996;1202;22472;-85
2021/10/20 02:15:53;;;;;;;15.50;7.40;;;;;;;9.01;76.48;98704.80;115070;1202;138479;-84
2021/10/20 02:18:21;;;;;;;12.10;6.60;;;;;;;9.04;76.25;98708.02;114044;1196;22472;-85
2021/10/20 02:20:54;;;;;;;10.60;6.40;;;;;;;9.07;76.07;98707.02;114808;1202;137392;-85
2021/10/20 02:23:21;;;;;;;10.00;6.50;;;;;;;9.10;75.91;98706.55;115386;1202;22470;-85
2021/10/20 02:25:49;;;;;;;12.30;7.20;;;;;;;9.12;75.87;98702.01;114017;1202;24166;-84
2021/10/20 02:28:15;;;;;;;11.00;6.90;;;;;;;9.13;75.70;98692.73;114217;1196;137168;-85
2021/10/20 02:30:45;;;;;;;12.00;6.70;;;;;;;9.13;75.58;98690.44;114596;1202;22428;-85
2021/10/20 02:33:13;;;;;;;11.50;6.40;;;;;;;9.10;75.63;98686.08;113836;1202;137340;-84
2021/10/20 02:35:43;;;;;;;;;;;;;;;9.08;75.45;98688.40;113798;1202;23142;-85
2021/10/20 02:38:09;;;;;;;10.00;5.80;;;;;;;9.10;75.48;98687.09;114163;1195;124418;-85
2021/10/20 02:40:36;;;;;;;12.70;5.10;;;;;;;9.12;75.33;98684.54;115194;1196;22534;-85
2021/10/20 02:43:03;;;;;;;9.30;5.40;;;;;;;9.16;75.37;98683.08;114371;1202;22182;-85
2021/10/20 02:45:30;;;;;;;7.10;4.90;;;;;;;9.19;75.32;98673.42;114903;1202;137403;-85
2021/10/20 02:47:57;;;;;;;10.80;5.50;;;;;;;9.21;75.11;98674.02;114001;1197;22491;-84
2021/10/20 02:50:28;;;;;;;11.50;5.10;;;;;;;9.23;75.15;98677.45;113795;1202;137865;-85
2021/10/20 02:52:57;;;;;;;9.60;5.00;;;;;;;9.25;75.08;98677.17;114315;1196;22441;-84
2021/10/20 02:55:24;;;;;;;6.80;4.40;;;;;;;9.26;75.01;98674.23;115416;1202;22546;-84
2021/10/20 02:58:05;;;;;;;10.10;4.80;;;;;;;9.29;75.29;98674.56;113815;1196;137851;-87
2021/10/20 03:00:32;;;;;;;7.70;4.80;;;;;;;9.31;75.13;98680.81;114047;1202;26269;-84
2021/10/20 03:02:59;;;;;;;9.80;5.10;;;;;;;9.34;75.24;98683.66;115235;1196;137327;-84
2021/10/20 03:05:26;;;;;;;10.80;4.70;;;;;;;9.36;75.32;98679.74;113583;1202;22462;-87
2021/10/20 03:07:54;;;;;;;11.40;5.30;;;;;;;9.38;75.03;98676.75;114361;1195;137478;-85
2021/10/20 03:10:21;;;;;;;7.60;3.60;;;;;;;9.39;74.91;98676.13;116003;1202;22490;-85
2021/10/20 03:12:48;;;;;;;7.00;4.80;;;;;;;9.40;74.95;98677.09;113808;1202;22562;-85
2021/10/20 03:15:15;;;;;;;8.00;3.90;;;;;;;9.42;74.82;98675.52;113948;1202;137711;-85
2021/10/20 03:17:42;;;;;;;6.60;4.00;;;;;;;9.45;74.97;98675.05;113870;1196;23128;-84
2021/10/20 03:20:10;;;;;;;6.60;4.00;;;;;;;9.47;74.93;98675.43;114062;1202;137312;-85
2021/10/20 03:22:51;;;;;;;6.40;4.20;;;;;;;9.49;74.92;98671.89;114490;1202;22465;-85
2021/10/20 03:25:18;;;;;;;8.50;4.40;;;;;;;9.52;74.78;98667.76;114001;1202;22490;-85
2021/10/20 03:27:47;;;;;;;8.00;4.40;;;;;;;9.54;74.80;98661.48;115181;1195;137154;-85
2021/10/20 03:30:18;;;;;;;7.40;4.10;;;;;;;9.56;74.63;98659.20;114637;1203;23298;-85
2021/10/20 03:32:45;;;;;;;7.30;3.90;;;;;;;9.57;74.78;98662.40;115964;1203;137835;-85
2021/10/20 03:35:26;;;;;;;6.90;4.50;;;;;;;9.59;74.69;98658.77;114609;1203;22356;-85
2021/10/20 03:37:53;;;;;;;8.10;4.30;;;;;;;9.64;74.49;98655.51;114468;1202;137639;-84
2021/10/20 03:40:20;;;;;;;7.50;4.50;;;;;;;9.70;74.37;98655.92;114101;1202;22422;-85
2021/10/20 03:42:47;;;;;;;9.90;5.10;;;;;;;9.75;74.37;98654.30;114506;1202;22369;-85
2021/10/20 03:45:15;;;;;;;8.40;5.10;;;;;;;9.78;74.46;98652.69;115173;1202;137856;-85
2021/10/20 03:47:44;;;;;;;9.90;4.90;;;;;;;9.81;74.39;98650.42;114211;1196;22469;-84
2021/10/20 03:50:11;;;;;;;7.70;4.50;;;;;;;9.81;73.98;98649.83;113741;1196;137169;-85
2021/10/20 03:52:38;;;;;;;10.00;5.40;;;;;;;9.81;74.08;98644.48;114597;1201;22435;-85
2021/10/20 03:55:18;;;;;;;9.20;4.90;;;;;;;9.80;74.18;98644.41;115458;1202;22504;-85
2021/10/20 03:57:46;;;;;;;8.50;5.30;;;;;;;9.81;73.97;98639.48;114346;1202;137928;-85
2021/10/20 04:00:16;;;;;;;9.50;5.00;;;;;;;9.84;73.86;98644.55;114517;1194;22465;-85
2021/10/20 04:02:44;;;;;;;8.50;5.00;;;;;;;9.87;73.85;98644.38;115757;1202;137159;-85
2021/10/20 04:05:15;;;;;;;7.50;5.20;;;;;;;9.91;73.83;98639.41;114024;1202;22474;-85
2021/10/20 04:07:44;;;;;;;10.00;5.50;;;;;;;9.97;73.51;98637.75;114053;1196;25046;-85
2021/10/20 04:10:18;;;;;;;8.80;5.60;;;;;;;10.02;73.77;98638.45;114036;1202;138082;-85
2021/10/20 04:12:59;;;;;;;10.00;5.50;;;;;;;10.07;73.61;98638.09;114925;1202;22190;-85
2021/10/20 04:15:26;;;;;;;9.70;6.10;;;;;;;10.11;73.68;98634.52;114081;1202;137545;-85
2021/10/20 04:17:54;;;;;;;9.40;5.50;;;;;;;10.14;73.58;98627.52;113826;1195;22867;-84
2021/10/20 04:20:22;;;;;;;9.30;5.30;;;;;;;10.18;73.47;98621.79;114139;1196;138243;-84
2021/10/20 04:22:50;;;;;;;7.50;4.50;;;;;;;10.23;73.64;98620.14;114274;1202;22455;-84
2021/10/20 04:25:18;;;;;;;8.60;4.50;;;;;;;10.28;73.58;98611.42;114057;1202;24145;-84
2021/10/20 04:27:46;;;;;;;9.60;4.80;;;;;;;10.32;73.64;98611.05;115183;1202;137204;-85
2021/10/20 04:30:27;;;;;;;9.60;4.90;;;;;;;10.35;73.53;98606.61;114083;1196;22558;-84
2021/10/20 04:32:54;;;;;;;9.30;5.00;;;;;;;10.36;73.46;98601.89;114126;1202;137210;-84
2021/10/20 04:35:23;;;;;;;8.10;5.40;;;;;;;10.36;73.54;98598.95;114153;1203;22437;-84
2021/10/20 04:37:50;;;;;;;10.30;6.00;;;;;;;10.36;73.35;98599.66;114000;1187;24084;-84
2021/10/20 04:40:17;;;;;;;8.00;5.30;;;;;;;10.36;73.55;98600.98;113962;1196;137994;-85
2021/10/20 04:42:58;;;;;;;10.60;5.60;;;;;;;10.37;73.68;98599.89;113602;1202;22446;-85
2021/10/20 04:45:25;;;;;;;8.30;6.10;;;;;;;10.38;73.44;98602.21;113479;1202;137550;-85
2021/10/20 04:47:52;;;;;;;12.80;7.00;;;;;;;10.39;73.77;98592.60;113694;1202;24166;-85
2021/10/20 04:50:33;;;;;;;14.10;7.50;;;;;;;10.40;73.73;98590.59;113723;1196;137403;-85
2021/10/20 04:53:14;;;;;;;11.30;6.70;;;;;;;10.38;73.91;98581.99;113954;1202;25045;-85
2021/10/20 04:55:40;;;;;;;13.80;6.80;;;;;;;10.36;73.63;98574.66;113863;1202;23210;-85
2021/10/20 04:58:08;;;;;;;12.20;7.30;;;;;;;10.33;74.28;98579.81;114077;1196;137944;-85
2021/10/20 05:00:37;;;;;;;11.80;6.70;;;;;;;10.32;74.22;98581.23;114542;1195;22449;-86
2021/10/20 05:03:04;;;;;;;13.20;7.10;;;;;;;10.32;74.51;98580.72;114107;1202;137485;-85
2021/10/20 05:05:31;;;;;;;12.10;7.40;;;;;;;10.33;74.58;98580.09;113889;1202;22430;-85
2021/10/20 05:07:59;;;;;;;11.90;7.00;;;;;;;10.33;74.81;98574.38;114286;1202;137597;-85
2021/10/20 05:10:40;;;;;;;11.50;7.00;;;;;;;10.34;74.67;98579.81;113921;1196;23814;-84
2021/10/20 05:13:07;;;;;;;14.10;7.50;;;;;;;10.35;74.99;98577.98;114272;1202;23567;-85
2021/10/20 05:15:47;;;;;;;11.70;6.70;;;;;;;10.37;75.10;98575.89;114419;1202;138199;-85
2021/10/20 05:18:14;;;;;;;11.70;7.20;;;;;;;10.41;75.10;98576.36;114274;1196;22436;-85
2021/10/20 05:20:41;;;;;;;12.30;6.90;;;;;;;10.44;75.02;98577.88;114228;1195;137609;-85
2021/10/20 05:23:11;;;;;;;9.80;6.50;;;;;;;10.49;75.17;98576.58;114436;1201;22914;-85
2021/10/20 05:25:38;;;;;;;10.30;6.50;;;;;;;10.54;75.38;98569.97;114215;1202;22428;-85
2021/10/20 05:28:06;;;;;;;10.90;6.30;;;;;;;10.60;75.37;98570.73;113668;1196;137604;-85
2021/10/20 05:30:34;;;;;;;13.60;6.70;;;;;;;10.65;75.23;98563.05;113609;1196;25140;-84
2021/10/20 05:33:01;;;;;;;14.80;6.90;;;;;;;10.70;74.97;98565.75;113770;1202;138483;-85
2021/10/20 05:35:28;;;;;;;12.50;6.90;;;;;;;10.75;74.84;98559.30;113902;1202;23155;-84
2021/10/20 05:38:09;;;;;;;17.50;8.10;;;;;;;10.81;75.33;98557.95;113778;1202;137976;-84
2021/10/20 05:40:50;;;;;;;13.10;8.50;;;;;;;10.86;74.96;98559.19;113803;1195;25133;-85
2021/10/20 05:43:30;;;;;;;17.30;8.90;;;;;;;10.89;74.51;98566.54;114007;1202;22501;-85
2021/10/20 05:45:57;;;;;;;16.50;9.20;;;;;;;10.92;74.65;98566.05;114052;1201;137407;-85
2021/10/20 05:48:24;;;;;;;12.70;8.10;;;;;;;10.93;74.49;98556.80;115258;1196;23248;-85
2021/10/20 05:50:52;;;;;;;15.70;8.80;;;;;;;10.95;74.46;98561.59;114510;1195;138271;-86
2021/10/20 05:53:20;;;;;;;15.20;7.70;;;;;;;10.98;74.72;98559.78;114338;1195;22550;-87
2021/10/20 05:55:47;;;;;;;17.20;7.90;;;;;;;11.02;74.52;98561.33;114012;1202;23635;-86
2021/10/20 05:58:14;;;;;;;13.80;8.50;;;;;;;11.06;74.49;98554.48;114220;1202;137780;-86
2021/10/20 06:00:41;;;;;;;15.00;7.90;;;;;;;11.10;74.82;98550.58;114913;1195;24174;-86
2021/10/20 06:03:08;;;;;;;11.70;7.40;;;;;;;11.15;74.71;98546.90;115519;1201;137658;-86
2021/10/20 06:05:36;;;;;;;14.00;8.40;;;;;;;11.20;74.70;98553.35;114093;1202;22459;-86
2021/10/20 06:08:03;;;;;;;12.70;7.30;;;;;;;11.27;74.85;98557.72;114209;1202;138074;-85
2021/10/20 06:10:32;;;;;;;19.80;9.00;;;;;;;11.34;75.18;98557.67;114018;1202;22468;-86
2021/10/20 06:12:59;;;;;;;16.80;7.90;;;;;;;11.41;74.67;98558.89;114814;1196;22547;-85
2021/10/20 06:15:26;;;;;;;15.40;7.70;;;;;;;11.48;74.56;98560.73;115584;1202;138512;-85
2021/10/20 06:17:56;;;;;;;15.80;8.00;;;;;;;11.53;74.76;98557.98;116359;1202;22239;-86
2021/10/20 06:20:26;;;;;;;17.00;8.20;;;;;;;11.59;74.56;98553.61;116417;1202;137737;-84
2021/10/20 06:22:53;;;;;;;17.60;8.00;;;;;;;11.65;74.49;98560.39;115137;1196;22321;-84
2021/10/20 06:25:36;;;;;;;13.40;7.20;;;;;;;11.70;74.43;98555.30;114199;1202;22862;-85
2021/10/20 06:28:03;;;;;;;10.60;7.70;;;;;;;11.77;74.32;98546.72;113981;1202;137826;-85
2021/10/20 06:30:31;;;;;;;17.40;8.40;;;;;;;11.84;74.17;98545.95;115487;1202;22262;-85
2021/10/20 06:32:57;;;;;;;15.20;8.30;;;;;;;11.90;74.30;98546.98;114933;1195;137529;-84
2021/10/20 06:35:24;;;;;;;16.20;8.30;;;;;;;11.96;74.29;98548.59;114027;1202;22457;-85
2021/10/20 06:37:53;;;;;;;13.90;8.30;;;;;;;12.02;74.23;98548.34;115536;1202;22457;-85
2021/10/20 06:40:20;;;;;;;14.80;8.60;;;;;;;12.06;73.95;98549.95;114543;1202;137444;-85
2021/10/20 06:42:47;;;;;;;14.50;7.70;;;;;;;12.11;74.01;98547.75;114124;1195;22441;-85
2021/10/20 06:45:28;;;;;;;16.80;8.00;;;;;;;12.17;74.05;98547.67;113636;1202;139286;-85
2021/10/20 06:48:09;;;;;;;17.00;8.70;;;;;;;12.22;74.13;98543.48;114126;1202;22911;-85
2021/10/20 06:50:36;;;;;;;14.10;7.80;;;;;;;12.28;74.11;98537.92;113665;1202;137725;-85
2021/10/20 06:53:03;;;;;;;11.00;6.40;;;;;;;12.35;74.23;98541.79;114375;1195;25423;-85
2021/10/20 06:55:45;;;;;;;16.30;7.30;;;;;;;12.42;74.12;98543.28;114266;1187;25091;-85
2021/10/20 06:58:26;;;;;;;13.60;6.50;;;;;;;12.47;74.13;98533.63;113869;1202;137192;-84
2021/10/20 07:00:53;;;;;;;11.50;6.00;;;;;;;12.52;74.07;98532.77;114082;1201;22440;-84
2021/10/20 07:03:20;;;;;;;11.70;6.70;;;;;;;12.60;73.85;98529.61;113775;1195;137614;-85
2021/10/20 07:06:01;;;;;;;12.30;6.60;;;;;;;12.69;73.89;98532.88;113698;1202;25172;-85
2021/10/20 07:08:28;;;;;;;14.40;6.90;;;;;;;12.75;73.95;98542.68;114662;1202;138234;-85
2021/10/20 07:10:55;;;;;;;19.20;7.80;;;;;;;12.79;73.81;98543.42;114154;1201;25102;-86
2021/10/20 07:13:22;;;;;;;14.90;8.00;;;;;;;12.82;73.67;98538.28;113913;1196;22463;-85
2021/10/20 07:15:50;;;;;;;17.50;9.30;;;;;;;12.86;73.67;98536.14;114272;1202;138008;-85
2021/10/20 07:18:17;;;;;;;13.40;8.20;;;;;;;12.94;73.70;98530.52;113894;1202;22434;-85
2021/10/20 07:20:44;;;;;;;13.60;7.70;;;;;;;13.03;73.68;98533.00;114099;1202;138042;-85
2021/10/20 07:23:12;;;;;;;12.30;7.30;;;;;;;13.13;73.71;98533.69;113940;1195;22443;-85
2021/10/20 07:25:38;;;;;;;12.50;7.10;;;;;;;13.23;73.47;98538.33;113945;1202;22151;-85
2021/10/20 07:28:05;;;;;;;14.50;7.80;;;;;;;13.34;73.38;98537.13;113686;1202;137602;-86
2021/10/20 07:30:32;;;;;;;19.70;8.20;;;;;;;13.42;73.32;98537.53;113818;1202;22552;-86
2021/10/20 07:32:59;;;;;;;14.30;7.20;;;;;;;13.52;73.01;98539.45;113672;1195;137211;-85
2021/10/20 07:35:26;;;;;;;12.60;5.50;;;;;;;13.64;72.99;98539.16;113278;1202;22567;-86
2021/10/20 07:37:54;;;;;;;11.80;5.70;;;;;;;13.75;72.69;98534.26;114103;1195;23201;-84
2021/10/20 07:40:34;;;;;;;10.70;6.10;;;;;;;13.90;72.75;98531.73;113944;1202;137242;-85
2021/10/20 07:43:01;;;;;;;8.90;4.90;;;;;;;14.03;72.60;98531.52;114033;1195;22464;-84
2021/10/20 07:45:28;;;;;;;8.00;5.50;;;;;;;14.15;72.49;98528.73;113712;1202;137324;-84
2021/10/20 07:47:55;;;;;;;8.40;5.10;;;;;;;14.27;72.47;98526.75;114171;1202;22448;-84
2021/10/20 07:50:23;;;;;;;7.30;4.90;;;;;;;14.38;71.96;98528.05;113901;1201;137524;-84
2021/10/20 07:52:50;;;;;;;9.30;5.10;;;;;;;14.47;71.75;98524.42;113988;1196;22864;-84
2021/10/20 07:55:21;;;;;;;7.00;4.50;;;;;;;14.58;71.68;98521.84;113863;1196;23199;-84
2021/10/20 07:57:48;;;;;;;8.90;3.90;;;;;;;14.71;71.73;98513.83;113614;1201;138174;-83
2021/10/20 08:00:29;;;;;;;8.50;4.50;;;;;;;14.88;71.36;98513.32;113800;1202;24044;-85
2021/10/20 08:02:56;;;;;;;7.90;3.70;;;;;;;15.03;71.25;98515.92;113469;1202;137464;-86
2021/10/20 08:05:24;;;;;;;6.10;3.80;;;;;;;15.17;70.94;98515.43;113437;1197;22453;-85
2021/10/20 08:08:09;;;;;;;14.30;4.50;;;;;;;15.32;70.73;98509.13;113964;1202;24180;-85
2021/10/20 08:10:37;;;;;;;7.10;3.90;;;;;;;15.44;70.15;98506.05;113974;1199;137667;-87
2021/10/20 08:13:04;;;;;;;8.00;3.80;;;;;;;15.55;69.69;98507.95;114332;1197;22444;-84
2021/10/20 08:15:31;;;;;;;5.50;3.60;;;;;;;15.66;69.05;98501.89;113972;1196;137453;-84
2021/10/20 08:18:03;;;;;;;4.10;3.00;;;;;;;15.76;68.86;98504.59;113693;1202;22467;-85
2021/10/20 08:20:32;;;;;;;7.50;2.90;;;;;;;15.88;68.22;98501.34;113745;1202;137859;-84
2021/10/20 08:22:59;;;;;;;;;;;;;;;16.00;67.89;98500.20;114478;1201;22438;-90
2021/10/20 08:25:26;;;;;;;4.70;3.00;;;;;;;16.12;66.94;98493.29;114124;1195;22468;-86
2021/10/20 08:27:54;;;;;;;5.50;3.00;;;;;;;16.23;66.96;98489.73;113769;1202;139293;-86
2021/10/20 08:30:20;;;;;;;9.90;3.10;;;;;;;16.34;67.15;98489.18;113789;1202;22469;-83
2021/10/20 08:33:03;;;;;;;5.30;2.90;;;;;;;16.45;66.68;98487.15;113967;1202;137356;-87
2021/10/20 08:35:30;;;;;;;7.10;3.40;;;;;;;16.54;66.15;98481.83;114127;1196;24045;-86
2021/10/20 08:38:03;;;;;;;6.60;3.30;;;;;;;16.61;65.50;98482.94;113768;1195;22449;-85
2021/10/20 08:40:36;;;;;;;5.30;3.10;;;;;;;16.66;65.00;98485.44;113470;1202;137062;-84
2021/10/20 08:43:04;;;;;;;6.70;3.60;;;;;;;16.72;65.18;98483.10;114116;1202;22457;-86
2021/10/20 08:45:31;;;;;;;7.10;3.50;;;;;;;16.78;65.46;98485.04;113790;1195;137180;-84
2021/10/20 08:47:59;;;;;;;5.60;3.10;;;;;;;16.82;65.00;98485.85;114137;1195;22623;-85
2021/10/20 08:50:32;;;;;;;6.50;3.20;;;;;;;16.88;64.79;98491.33;113695;1202;137380;-84
2021/10/20 08:53:00;;;;;;;4.90;2.70;;;;;;;16.92;64.31;98491.96;113823;1202;24064;-84
2021/10/20 08:55:28;;;;;;;5.30;3.20;;;;;;;16.99;64.32;98490.38;113805;1196;22465;-86
2021/10/20 08:57:56;;;;;;;6.20;3.70;;;;;;;17.04;64.40;98487.47;113719;1202;139764;-84
2021/10/20 09:00:24;;;;;;;8.00;4.00;;;;;;;17.09;64.33;98485.28;113692;1202;23013;-86
2021/10/20 09:03:05;;;;;;;7.70;3.50;;;;;;;17.15;64.02;98485.35;113673;1203;137924;-86
2021/10/20 09:05:46;;;;;;;10.90;3.90;;;;;;;17.21;64.03;98476.71;113981;1195;24090;-84
2021/10/20 09:08:13;;;;;;;13.20;3.90;;;;;;;17.27;63.63;98475.13;113936;1202;137657;-86
2021/10/20 09:10:40;;;;;;;14.30;5.20;;;;;;;17.32;63.38;98473.71;113685;1202;23159;-85
2021/10/20 09:13:07;;;;;;;5.60;3.00;;;;;;;17.38;63.27;98476.08;113763;1203;24138;-87
2021/10/20 09:15:36;;;;;;;11.00;4.50;;;;;;;17.44;62.89;98480.10;113826;1196;137412;-85
2021/10/20 09:18:17;;;;;;;9.50;4.60;;;;;;;17.50;62.83;98479.65;113913;1196;22439;-85
2021/10/20 09:20:46;;;;;;;8.50;3.20;;;;;;;17.56;63.09;98472.05;114503;1202;137597;-86
2021/10/20 09:23:30;;;;;;;8.40;2.90;;;;;;;17.64;62.65;98469.66;113726;1203;25702;-88
2021/10/20 09:25:58;;;;;;;6.60;3.30;;;;;;;17.70;62.42;98466.84;113915;1195;22401;-85
2021/10/20 09:28:40;;;;;;;5.80;3.20;;;;;;;17.77;62.81;98461.30;114183;1202;137335;-85
2021/10/20 09:31:08;;;;;;;5.90;3.10;;;;;;;17.81;62.57;98462.47;113875;1181;22432;-85
2021/10/20 09:33:37;;;;;;;5.50;3.30;;;;;;;17.86;61.87;98457.16;113918;1203;137035;-87
2021/10/20 09:36:14;;;;;;;7.70;3.40;;;;;;;17.88;61.84;98450.86;113692;1202;22642;-85
2021/10/20 09:38:48;;;;;;;4.80;3.00;;;;;;;17.92;61.98;98450.42;113675;1187;137487;-87
2021/10/20 09:41:29;;;;;;;7.00;3.20;;;;;;;17.95;61.77;98445.77;114236;1202;22480;-84
2021/10/20 09:43:57;;;;;;;6.10;3.00;;;;;;;17.99;61.99;98444.52;113833;1202;22452;-84
2021/10/20 09:46:35;;;;;;;7.20;3.60;;;;;;;18.03;62.06;98441.26;113826;1197;137237;-85
2021/10/20 09:49:14;;;;;;;7.70;3.50;;;;;;;18.09;61.99;98435.29;114180;1202;23306;-84
2021/10/20 09:51:58;;;;;;;7.60;3.60;;;;;;;18.14;61.99;98435.34;113868;1189;139358;-85
2021/10/20 09:54:41;;;;;;;7.90;4.10;;;;;;;18.19;61.78;98439.73;113949;1203;23948;-85
2021/10/20 09:57:08;;;;;;;5.00;2.70;;;;;;;18.21;61.38;98436.18;114239;1196;138104;-85
2021/10/20 09:59:35;;;;;;;6.00;3.30;;;;;;;18.24;61.27;98437.42;113766;1202;22562;-86
2021/10/20 10:02:02;;;;;;;6.80;3.20;;;;;;;18.27;61.10;98432.30;114287;1196;25242;-85
2021/10/20 10:04:29;;;;;;;7.70;3.30;;;;;;;18.30;60.93;98422.61;113903;1202;137754;-84
2021/10/20 10:06:56;;;;;;;5.70;2.90;;;;;;;18.33;60.73;98417.83;113540;1202;22466;-84
2021/10/20 10:09:23;;;;;;;5.70;3.00;;;;;;;18.36;60.66;98420.10;114438;1203;137066;-86
2021/10/20 10:11:53;;;;;;;3.90;3.30;;;;;;;18.40;60.38;98413.70;113661;1202;23232;-86
2021/10/20 10:14:26;;;;;;;5.40;3.00;;;;;;;18.43;60.31;98410.25;113236;1197;137550;-85
2021/10/20 10:16:59;;;;;;;5.20;3.00;;;;;;;18.47;60.47;98398.99;114258;1196;24171;-85
2021/10/20 10:19:28;;;;;;;4.50;3.20;;;;;;;18.51;60.03;98397.29;114018;1202;25100;-85
2021/10/20 10:21:55;;;;;;;5.70;2.80;;;;;;;18.53;59.87;98396.87;113902;1202;137436;-84
2021/10/20 10:24:37;;;;;;;7.20;3.40;;;;;;;18.56;59.19;98393.12;113998;1202;22477;-85
2021/10/20 10:27:11;;;;;;;5.70;3.00;;;;;;;18.63;59.04;98388.05;114263;1197;137082;-85
2021/10/20 10:30:03;;;;;;;8.10;3.60;;;;;;;18.73;59.16;98386.02;113608;1202;22471;-85
2021/10/20 10:32:33;;;;;;;6.30;2.70;;;;;;;18.87;59.38;98377.14;113966;1202;137420;-87
2021/10/20 10:35:07;;;;;;;9.20;3.30;;;;;;;19.01;58.88;98370.13;113787;1202;24387;-85
2021/10/20 10:37:36;;;;;;;6.50;2.60;;;;;;;19.14;57.96;98362.60;114131;1196;22774;-84
2021/10/20 10:40:21;;;;;;;4.90;2.80;;;;;;;19.26;57.31;98364.64;113461;1202;137252;-84
2021/10/20 10:42:50;;;;;;;8.80;3.20;;;;;;;19.36;56.50;98364.27;114302;1202;22434;-86
2021/10/20 10:45:22;;;;;;;6.00;2.90;;;;;;;19.46;56.90;98353.02;114218;1202;137727;-85
2021/10/20 10:47:56;;;;;;;4.10;2.70;;;;;;;19.57;56.13;98350.64;113707;1202;22910;-86
2021/10/20 10:50:49;;;;;;;7.10;2.30;;;;;;;19.68;56.34;98344.17;113796;1202;139501;-86
2021/10/20 10:53:38;;;;;;;5.80;2.00;;;;;;;19.82;55.54;98339.84;113979;1202;24421;-85
2021/10/20 10:56:14;;;;;;;4.50;2.60;;;;;;;19.93;54.33;98337.16;114196;1202;22499;-86
2021/10/20 10:59:09;;;;;;;6.50;2.30;;;;;;;20.01;54.22;98331.73;114033;1196;137508;-85
2021/10/20 11:01:38;;;;;;;6.40;3.00;;;;;;;20.14;54.75;98335.43;113957;1202;22436;-85
2021/10/20 11:04:35;;;;;;;3.20;2.20;;;;;;;20.26;54.14;98333.65;114119;1189;137301;-84
2021/10/20 11:07:03;;;;;;;5.10;2.10;;;;;;;20.33;51.96;98320.60;114658;1195;22226;-86
2021/10/20 11:09:32;;;;;;;4.90;2.50;;;;;;;20.38;51.93;98311.79;114773;1187;137104;-86
2021/10/20 11:12:02;;;;;;;9.90;3.10;;;;;;;20.38;51.76;98310.35;113921;1202;24095;-84
2021/10/20 11:14:31;;;;;;;5.70;3.30;;;;;;;20.36;51.23;98313.87;113733;1202;137283;-85
2021/10/20 11:17:12;;;;;;;12.20;5.40;;;;;;;20.36;50.69;98306.11;114124;1196;22454;-86
2021/10/20 11:19:39;;;;;;;10.00;4.40;;;;;;;20.35;51.12;98301.75;114741;1202;22676;-86
2021/10/20 11:22:06;;;;;;;8.50;4.00;;;;;;;20.35;51.31;98300.16;113937;1187;137734;-85
2021/10/20 11:24:43;;;;;;;4.50;2.90;;;;;;;20.34;50.95;98294.27;113950;1202;22438;-87
2021/10/20 11:27:10;;;;;;;8.40;3.40;;;;;;;20.33;50.89;98286.98;113881;1196;137232;-85
2021/10/20 11:29:54;;;;;;;4.50;2.50;;;;;;;20.30;50.79;98276.98;113725;1203;25061;-85
2021/10/20 11:32:22;;;;;;;3.50;2.40;;;;;;;20.31;50.88;98275.35;113852;1202;138086;-86
2021/10/20 11:34:51;;;;;;;9.70;2.70;;;;;;;20.34;51.31;98269.42;113722;1202;22474;-86